Arcadia, Indiana
Current Conditions -  °F | °C
As of 4:15 AM on Monday 20 Oct 2014 (Local Time) from KTYQ Reporting Station
Broken Clouds Broken Clouds  
Wind Chill: 45°   Ceiling: 9500
Heat Index: 48°   Visibility: 10mi
Dew Point: 41°   Wind: 7mph
Humidity: 77%   Direction: 200°SSW
Pressure: 29.98"   Gusts: NA
Location:  40.18°N, 86.02°W
Report Text: KTYQ 200815Z AUTO 20006KT 10SM BKN095 09/05 A2998 RMK AO2 T00900051
Loading
Personal Weather Stations






























Interactive Weather Map New forecast layout! Learn more

10-Day Weather Forecast

Advertisements
Track Severe Weather on mobile